Time;durP1;ratioP1;P1;durP2;ratioP2;P2;SDS_P1;SDS_P2;PMS_P1;PMS_P2;Temp;Humidity;BMP_temperature;BMP_pressure;BME280_temperature;BME280_humidity;BME280_pressure;Samples;Min_cycle;Max_cycle;Signal;HPM_P1;HPM_P2
2022/10/11 00:00:48;;;;;;;18.77;4.70;;;8.60;99.90;;;;;;5033623;28;20060;-82
2022/10/11 00:03:13;;;;;;;11.87;3.90;;;8.50;99.90;;;;;;5033548;28;20057;-81
2022/10/11 00:05:40;;;;;;;11.20;4.53;;;8.50;99.90;;;;;;5032975;28;20060;-81
2022/10/11 00:08:06;;;;;;;14.00;4.60;;;8.50;99.90;;;;;;5032794;28;20460;-82
2022/10/11 00:10:33;;;;;;;13.73;5.03;;;8.50;99.90;;;;;;5033229;28;20105;-82
2022/10/11 00:12:59;;;;;;;13.40;5.00;;;8.40;99.90;;;;;;5016395;28;20037;-82
2022/10/11 00:15:25;;;;;;;14.90;4.83;;;8.40;99.90;;;;;;5033372;28;20384;-82
2022/10/11 00:17:50;;;;;;;18.03;5.73;;;8.40;99.90;;;;;;5032744;28;20026;-82
2022/10/11 00:20:17;;;;;;;10.47;4.60;;;8.40;99.90;;;;;;5033340;28;20021;-82
2022/10/11 00:22:43;;;;;;;12.50;4.90;;;8.40;99.90;;;;;;5032690;28;20027;-82
2022/10/11 00:25:10;;;;;;;11.80;5.10;;;8.40;99.90;;;;;;5032985;28;20034;-82
2022/10/11 00:27:36;;;;;;;13.90;4.73;;;8.30;99.90;;;;;;5016081;28;20022;-82
2022/10/11 00:30:04;;;;;;;9.53;3.67;;;8.40;99.90;;;;;;4999982;28;20026;-82
2022/10/11 00:32:33;;;;;;;9.23;3.30;;;8.30;99.90;;;;;;5032522;28;20052;-82
2022/10/11 00:35:03;;;;;;;17.17;4.60;;;8.30;99.90;;;;;;5032536;28;20257;-82
2022/10/11 00:37:29;;;;;;;10.17;3.90;;;8.30;99.90;;;;;;5032517;28;20025;-82
2022/10/11 00:39:55;;;;;;;12.13;3.80;;;8.30;99.90;;;;;;5015971;28;20474;-82
2022/10/11 00:42:21;;;;;;;11.23;4.17;;;8.10;99.90;;;;;;5015935;28;20124;-82
2022/10/11 00:44:48;;;;;;;11.33;4.20;;;8.20;99.90;;;;;;5015982;28;20398;-82
2022/10/11 00:47:18;;;;;;;11.37;4.90;;;8.20;99.90;;;;;;5016100;28;20039;-82
2022/10/11 00:49:57;;;;;;;11.83;4.87;;;8.10;99.90;;;;;;5032186;28;20021;-81
2022/10/11 00:52:37;;;;;;;11.50;4.07;;;8.00;99.90;;;;;;5032291;28;20017;-82
2022/10/11 00:55:11;;;;;;;10.40;3.87;;;8.00;99.90;;;;;;5033766;28;20021;-83
2022/10/11 00:57:38;;;;;;;;;;;8.00;99.90;;;;;;5032561;28;20021;-81
2022/10/11 01:00:10;;;;;;;8.43;3.60;;;7.90;99.90;;;;;;5032100;28;19909;-81
2022/10/11 01:02:36;;;;;;;7.00;2.90;;;7.90;99.90;;;;;;5032670;28;20496;-87
2022/10/11 01:05:04;;;;;;;7.73;3.30;;;7.80;99.90;;;;;;5033275;28;20131;-87
2022/10/11 01:07:30;;;;;;;8.57;3.20;;;7.80;99.90;;;;;;5033449;28;20029;-87
2022/10/11 01:09:56;;;;;;;9.03;3.77;;;7.80;99.90;;;;;;5032839;28;20141;-87
2022/10/11 01:12:26;;;;;;;8.23;3.87;;;7.80;99.90;;;;;;5032970;28;20029;-87
2022/10/11 01:14:58;;;;;;;9.73;3.53;;;7.70;99.90;;;;;;5036559;28;20026;-88
2022/10/11 01:18:03;;;;;;;11.77;3.73;;;7.70;99.90;;;;;;5020947;28;20026;-88
2022/10/11 01:20:39;;;;;;;11.45;4.10;;;7.60;99.90;;;;;;5021211;28;20029;-87
2022/10/11 01:23:11;;;;;;;12.90;3.90;;;7.60;99.90;;;;;;5020299;28;20049;-87
2022/10/11 01:25:39;;;;;;;11.57;3.60;;;7.60;99.90;;;;;;5020335;28;20045;-86
2022/10/11 01:28:15;;;;;;;12.03;4.27;;;7.60;99.90;;;;;;5020227;28;20037;-86
2022/10/11 01:30:42;;;;;;;13.30;3.83;;;7.40;99.90;;;;;;5020258;28;20033;-87
2022/10/11 01:33:40;;;;;;;17.20;3.73;;;7.50;99.90;;;;;;5036897;28;20060;-86
2022/10/11 01:36:26;;;;;;;13.50;3.63;;;7.50;99.90;;;;;;5037230;28;20436;-87
2022/10/11 01:39:13;;;;;;;8.20;3.20;;;7.50;99.90;;;;;;5020362;28;20025;-86
2022/10/11 01:41:48;;;;;;;9.27;3.03;;;7.50;99.90;;;;;;5036644;28;20013;-87
2022/10/11 01:44:15;;;;;;;12.60;3.30;;;7.40;99.90;;;;;;5036616;28;20056;-87
2022/10/11 01:46:41;;;;;;;7.73;3.27;;;7.40;99.90;;;;;;5020289;28;20033;-87
2022/10/11 01:49:07;;;;;;;12.40;3.87;;;7.40;99.90;;;;;;5036195;28;20030;-87
2022/10/11 01:51:38;;;;;;;8.80;3.63;;;7.40;99.90;;;;;;5036394;28;20080;-87
2022/10/11 01:54:15;;;;;;;8.17;3.30;;;7.30;99.90;;;;;;5036303;28;20021;-87
2022/10/11 01:57:20;;;;;;;25.57;4.13;;;7.30;99.90;;;;;;5020179;28;20022;-87
2022/10/11 02:00:13;;;;;;;20.60;4.18;;;7.30;99.90;;;;;;5036036;28;20029;-88
2022/10/11 02:03:18;;;;;;;41.20;3.53;;;7.30;99.90;;;;;;5020133;28;20032;-87
2022/10/11 02:06:04;;;;;;;35.33;2.67;;;7.30;99.90;;;;;;5016454;28;20041;-87
2022/10/11 02:08:40;;;;;;;27.83;3.23;;;7.30;99.90;;;;;;5037066;28;20045;-87
2022/10/11 02:11:20;;;;;;;13.73;3.47;;;7.30;99.90;;;;;;5035906;28;20024;-87
2022/10/11 02:14:09;;;;;;;43.17;3.73;;;7.20;99.90;;;;;;5035942;28;20022;-87
2022/10/11 02:16:52;;;;;;;15.17;3.53;;;7.20;99.90;;;;;;5035993;28;20014;-87
2022/10/11 02:19:21;;;;;;;47.90;4.17;;;7.20;99.90;;;;;;5035675;28;20021;-87
2022/10/11 02:21:53;;;;;;;11.13;2.63;;;7.20;99.90;;;;;;5035834;28;20021;-87
2022/10/11 02:24:26;;;;;;;11.67;3.30;;;7.20;99.90;;;;;;5035642;28;20025;-87
2022/10/11 02:26:54;;;;;;;10.93;3.00;;;7.20;99.90;;;;;;5035379;28;20017;-87
2022/10/11 02:29:23;;;;;;;10.37;2.83;;;7.10;99.90;;;;;;5035479;28;20022;-88
2022/10/11 02:31:49;;;;;;;7.13;3.40;;;7.10;99.90;;;;;;5035465;28;20018;-87
2022/10/11 02:34:30;;;;;;;5.80;3.60;;;7.10;99.90;;;;;;5035572;28;20112;-87
2022/10/11 02:37:15;;;;;;;8.87;3.70;;;7.20;99.90;;;;;;5036007;28;20104;-87
2022/10/11 02:39:45;;;;;;;5.70;3.33;;;7.10;99.90;;;;;;5035439;28;20116;-87
2022/10/11 02:42:16;;;;;;;10.33;3.53;;;7.10;99.90;;;;;;5036027;28;20176;-88
2022/10/11 02:44:59;;;;;;;6.83;3.13;;;7.10;99.90;;;;;;5035579;28;20021;-87
2022/10/11 02:47:27;;;;;;;5.83;3.30;;;7.00;99.90;;;;;;5035919;28;20025;-87
2022/10/11 02:49:53;;;;;;;8.93;3.60;;;7.10;99.90;;;;;;5018554;28;20025;-88
2022/10/11 02:52:19;;;;;;;7.93;3.27;;;7.10;99.90;;;;;;5035600;28;20433;-88
2022/10/11 02:54:44;;;;;;;9.67;3.50;;;7.10;99.90;;;;;;5035481;28;20120;-86
2022/10/11 02:57:10;;;;;;;7.23;3.33;;;7.10;99.90;;;;;;5035139;28;20401;-87
2022/10/11 02:59:36;;;;;;;9.93;4.03;;;7.10;99.90;;;;;;5035004;28;20067;-87
2022/10/11 03:02:02;;;;;;;7.03;3.40;;;7.10;99.90;;;;;;5034977;28;20060;-88
2022/10/11 03:04:28;;;;;;;7.93;3.93;;;7.10;99.90;;;;;;5035044;28;20025;-88
2022/10/11 03:06:53;;;;;;;7.93;3.10;;;7.10;99.90;;;;;;5036177;28;20148;-88
2022/10/11 03:09:19;;;;;;;4.27;2.37;;;7.10;99.90;;;;;;5034929;28;20045;-87
2022/10/11 03:11:45;;;;;;;5.60;2.20;;;7.00;99.90;;;;;;5034690;28;20028;-87
2022/10/11 03:14:10;;;;;;;6.63;2.67;;;7.00;99.90;;;;;;5018736;28;20497;-88
2022/10/11 03:16:36;;;;;;;14.10;3.33;;;7.00;99.90;;;;;;5018442;28;20053;-87
2022/10/11 03:19:02;;;;;;;26.57;3.43;;;7.10;99.90;;;;;;5018218;28;20076;-87
2022/10/11 03:21:28;;;;;;;40.87;3.07;;;7.00;99.90;;;;;;5035074;28;20072;-88
2022/10/11 03:23:53;;;;;;;9.33;3.30;;;7.00;99.90;;;;;;5034633;28;20478;-86
2022/10/11 03:26:19;;;;;;;26.23;3.57;;;7.10;99.90;;;;;;5034856;28;20021;-87
2022/10/11 03:28:45;;;;;;;24.63;3.27;;;6.90;99.90;;;;;;5034661;28;20160;-87
2022/10/11 03:31:10;;;;;;;23.63;3.20;;;7.00;99.90;;;;;;5035434;28;20056;-87
2022/10/11 03:33:36;;;;;;;28.53;3.47;;;7.00;99.90;;;;;;5034959;28;20568;-87
2022/10/11 03:36:02;;;;;;;38.30;3.50;;;7.10;99.90;;;;;;5034075;28;20022;-86
2022/10/11 03:38:28;;;;;;;13.23;2.17;;;7.10;99.90;;;;;;5034076;28;20120;-87
2022/10/11 03:40:54;;;;;;;5.83;2.83;;;7.10;99.90;;;;;;5018024;28;20037;-87
2022/10/11 03:43:19;;;;;;;32.80;3.33;;;7.00;99.90;;;;;;5034694;28;20033;-87
2022/10/11 03:45:45;;;;;;;12.87;2.50;;;7.10;99.90;;;;;;5017564;28;20437;-88
2022/10/11 03:48:11;;;;;;;3.90;2.33;;;7.10;99.90;;;;;;5017520;28;20037;-87
2022/10/11 03:50:37;;;;;;;5.47;2.63;;;7.10;99.90;;;;;;5033975;28;20025;-87
2022/10/11 03:53:04;;;;;;;6.27;2.50;;;7.20;99.90;;;;;;5037210;28;20060;-87
2022/10/11 03:55:29;;;;;;;5.50;2.73;;;7.20;99.90;;;;;;5021170;28;20029;-88
2022/10/11 03:57:55;;;;;;;6.30;2.80;;;7.20;99.90;;;;;;5020692;28;20481;-88
2022/10/11 04:00:21;;;;;;;6.40;2.53;;;7.20;99.90;;;;;;5037457;28;20120;-87
2022/10/11 04:02:47;;;;;;;5.43;2.70;;;7.30;99.90;;;;;;5037258;28;20025;-88
2022/10/11 04:05:13;;;;;;;4.20;2.57;;;7.30;99.90;;;;;;5020690;28;20048;-88
2022/10/11 04:07:40;;;;;;;5.07;2.37;;;7.30;99.90;;;;;;5037526;28;20481;-88
2022/10/11 04:10:06;;;;;;;5.90;2.57;;;7.30;99.90;;;;;;5037144;28;20080;-88
2022/10/11 04:12:35;;;;;;;5.20;3.00;;;7.30;99.90;;;;;;5036876;28;20055;-88
2022/10/11 04:15:01;;;;;;;6.13;2.97;;;7.30;99.90;;;;;;5036878;28;20013;-88
2022/10/11 04:17:26;;;;;;;7.47;2.90;;;7.30;99.90;;;;;;5020266;28;20029;-87
2022/10/11 04:19:52;;;;;;;6.03;2.07;;;7.40;99.90;;;;;;5020187;28;20025;-86
2022/10/11 04:22:18;;;;;;;6.03;2.97;;;7.40;99.90;;;;;;5037090;28;20029;-89
2022/10/11 04:24:43;;;;;;;4.10;2.03;;;7.40;99.90;;;;;;5036829;28;20025;-89
2022/10/11 04:27:09;;;;;;;4.47;2.57;;;7.40;99.90;;;;;;5037136;28;20023;-88
2022/10/11 04:29:35;;;;;;;3.87;2.33;;;7.40;99.90;;;;;;5037193;28;20531;-88
2022/10/11 04:32:01;;;;;;;4.27;2.40;;;7.40;99.90;;;;;;5020775;28;20045;-88
2022/10/11 04:34:26;;;;;;;4.87;2.47;;;7.40;99.90;;;;;;5020958;28;20051;-88
2022/10/11 04:36:52;;;;;;;4.97;2.67;;;7.40;99.90;;;;;;5037094;28;20017;-89
2022/10/11 04:39:18;;;;;;;5.90;2.70;;;7.40;99.90;;;;;;5036710;28;20048;-88
2022/10/11 04:41:44;;;;;;;6.20;3.17;;;7.40;99.90;;;;;;5036907;28;20539;-88
2022/10/11 04:44:09;;;;;;;4.20;1.90;;;7.40;99.90;;;;;;5020074;28;20036;-88
2022/10/11 04:46:35;;;;;;;4.50;2.47;;;7.40;99.90;;;;;;5020727;28;20029;-88
2022/10/11 04:49:01;;;;;;;7.67;3.10;;;7.40;99.90;;;;;;5019818;28;20028;-88
2022/10/11 04:51:27;;;;;;;4.73;2.70;;;7.30;99.90;;;;;;5020106;28;20021;-89
2022/10/11 04:53:53;;;;;;;6.00;2.67;;;7.40;99.90;;;;;;5020172;28;20021;-88
2022/10/11 04:56:19;;;;;;;5.70;2.90;;;7.30;99.90;;;;;;5019897;28;20024;-89
2022/10/11 04:58:48;;;;;;;7.23;2.87;;;7.40;99.90;;;;;;5036319;28;20021;-88
2022/10/11 05:01:14;;;;;;;7.20;2.63;;;7.40;99.90;;;;;;5036404;28;20504;-89
2022/10/11 05:03:40;;;;;;;5.77;2.87;;;7.30;99.90;;;;;;5036783;28;20029;-89
2022/10/11 05:06:06;;;;;;;5.40;3.13;;;7.40;99.90;;;;;;5019839;28;20036;-90
2022/10/11 05:08:32;;;;;;;5.77;3.17;;;7.30;99.90;;;;;;5035864;28;20049;-88
2022/10/11 05:11:00;;;;;;;6.20;3.20;;;7.30;99.90;;;;;;5012336;28;20017;-88
2022/10/11 05:13:29;;;;;;;5.63;2.63;;;7.20;99.90;;;;;;5026364;28;20025;-88
2022/10/11 05:15:55;;;;;;;6.50;3.20;;;7.30;99.90;;;;;;5019749;28;20021;-88
2022/10/11 05:18:21;;;;;;;12.70;3.27;;;7.30;99.90;;;;;;5016493;28;20022;-89
2022/10/11 05:20:47;;;;;;;8.70;2.73;;;7.20;99.90;;;;;;5000458;28;20079;-89
2022/10/11 05:23:13;;;;;;;6.27;3.00;;;7.20;99.90;;;;;;5016534;28;20021;-89
2022/10/11 05:25:39;;;;;;;8.33;2.67;;;7.30;99.90;;;;;;5016429;28;20037;-89
2022/10/11 05:28:05;;;;;;;7.87;3.07;;;7.20;99.90;;;;;;5016717;28;20032;-89
2022/10/11 05:30:31;;;;;;;4.67;2.80;;;7.20;99.90;;;;;;5000145;28;20021;-88
2022/10/11 05:32:56;;;;;;;6.57;3.13;;;7.10;99.90;;;;;;5016612;28;20018;-88
2022/10/11 05:35:22;;;;;;;7.47;3.57;;;7.10;99.90;;;;;;5000190;28;20413;-89
2022/10/11 05:37:48;;;;;;;6.90;3.00;;;7.10;99.90;;;;;;5000452;28;20030;-89
2022/10/11 05:40:13;;;;;;;4.93;2.83;;;7.00;99.90;;;;;;5016542;28;20162;-88
2022/10/11 05:42:39;;;;;;;7.70;2.90;;;7.00;99.90;;;;;;5016547;28;20033;-89
2022/10/11 05:45:05;;;;;;;4.10;2.67;;;7.00;99.90;;;;;;5034042;28;20031;-89
2022/10/11 05:47:32;;;;;;;7.53;3.47;;;7.00;99.90;;;;;;5023847;28;20091;-88
2022/10/11 05:49:58;;;;;;;6.10;3.07;;;7.00;99.90;;;;;;5029309;28;20036;-87
2022/10/11 05:52:24;;;;;;;9.70;3.63;;;7.00;99.90;;;;;;5024778;28;20030;-87
2022/10/11 05:54:49;;;;;;;9.00;3.90;;;7.10;99.90;;;;;;5016439;28;20030;-87
2022/10/11 05:57:15;;;;;;;7.67;3.27;;;7.00;99.90;;;;;;5015809;28;20025;-87
2022/10/11 05:59:41;;;;;;;9.23;3.90;;;7.00;99.90;;;;;;5016258;28;20029;-87
2022/10/11 06:02:16;;;;;;;7.57;3.67;;;7.10;99.90;;;;;;5019856;28;20029;-87
2022/10/11 06:04:42;;;;;;;8.83;3.77;;;7.00;99.90;;;;;;5012245;28;20649;-87
2022/10/11 06:07:08;;;;;;;6.90;3.40;;;7.00;99.90;;;;;;5019605;28;20033;-87
2022/10/11 06:09:34;;;;;;;5.33;3.10;;;7.00;99.90;;;;;;5055313;28;20048;-87
2022/10/11 06:12:00;;;;;;;10.30;3.57;;;6.90;99.90;;;;;;5039700;28;20063;-87
2022/10/11 06:14:25;;;;;;;13.37;4.20;;;6.90;99.90;;;;;;5039502;28;20040;-88
2022/10/11 06:16:54;;;;;;;28.77;3.73;;;7.00;99.90;;;;;;5039440;28;20450;-87
2022/10/11 06:19:20;;;;;;;6.67;3.30;;;6.90;99.90;;;;;;5039276;28;20025;-88
2022/10/11 06:21:46;;;;;;;8.90;3.40;;;6.90;99.90;;;;;;5022548;28;20460;-88
2022/10/11 06:24:12;;;;;;;6.40;3.27;;;6.90;99.90;;;;;;5057114;28;20021;-88
2022/10/11 06:26:38;;;;;;;9.87;3.43;;;6.90;99.90;;;;;;5039532;28;20357;-87
2022/10/11 06:29:03;;;;;;;6.77;3.97;;;7.00;99.90;;;;;;5056281;28;20082;-86
2022/10/11 06:31:30;;;;;;;7.73;3.50;;;6.90;99.90;;;;;;5055416;28;20021;-87
2022/10/11 06:33:56;;;;;;;5.80;2.93;;;6.90;99.90;;;;;;5055768;28;20017;-87
2022/10/11 06:36:22;;;;;;;10.73;3.33;;;7.00;99.90;;;;;;5057509;28;20021;-87
2022/10/11 06:38:51;;;;;;;9.00;3.20;;;7.10;99.90;;;;;;5047711;28;20028;-87
2022/10/11 06:41:23;;;;;;;9.40;4.77;;;7.00;99.90;;;;;;5045714;28;20108;-87
2022/10/11 06:43:50;;;;;;;10.50;4.23;;;7.20;99.90;;;;;;5048398;28;20025;-87
2022/10/11 06:46:17;;;;;;;7.83;4.10;;;7.30;99.90;;;;;;5042555;28;20021;-86
2022/10/11 06:48:44;;;;;;;13.90;3.83;;;7.30;99.90;;;;;;5038610;28;20466;-86
2022/10/11 06:51:12;;;;;;;11.30;3.67;;;7.30;99.90;;;;;;5038348;28;20048;-87
2022/10/11 06:53:38;;;;;;;8.23;3.57;;;7.40;99.90;;;;;;5038998;28;20017;-87
2022/10/11 06:56:07;;;;;;;9.70;3.80;;;7.40;99.90;;;;;;5038973;28;20389;-86
2022/10/11 06:58:32;;;;;;;9.40;3.53;;;7.50;99.90;;;;;;5038596;28;20036;-86
2022/10/11 07:01:10;;;;;;;10.73;4.57;;;7.60;99.90;;;;;;5038905;28;20025;-86
2022/10/11 07:03:36;;;;;;;9.20;4.03;;;7.50;99.90;;;;;;5041821;28;20025;-87
2022/10/11 07:06:05;;;;;;;10.13;3.73;;;7.70;99.90;;;;;;5042578;28;20498;-87
2022/10/11 07:08:31;;;;;;;11.20;4.53;;;7.80;99.90;;;;;;5037867;28;20041;-87
2022/10/11 07:11:02;;;;;;;10.93;3.97;;;7.90;99.90;;;;;;5037705;28;20487;-80
2022/10/11 07:13:27;;;;;;;9.60;3.93;;;7.90;99.90;;;;;;5055168;28;20025;-81
2022/10/11 07:15:53;;;;;;;7.10;3.50;;;7.90;99.90;;;;;;5037022;28;20108;-80
2022/10/11 07:18:19;;;;;;;9.40;3.87;;;8.00;99.90;;;;;;5037095;28;20096;-81
2022/10/11 07:20:45;;;;;;;11.27;3.80;;;8.10;99.90;;;;;;5037088;28;20024;-80
2022/10/11 07:23:11;;;;;;;9.47;4.03;;;8.10;99.90;;;;;;5036917;28;20389;-81
2022/10/11 07:25:37;;;;;;;8.10;3.67;;;8.10;99.90;;;;;;5037566;28;20025;-86
2022/10/11 07:28:03;;;;;;;11.30;4.27;;;8.20;99.90;;;;;;5037809;28;20112;-86
2022/10/11 07:30:29;;;;;;;9.03;3.77;;;8.20;99.90;;;;;;5037430;28;20402;-85
2022/10/11 07:32:54;;;;;;;10.70;4.23;;;8.30;99.90;;;;;;5037540;28;20044;-89
2022/10/11 07:35:20;;;;;;;11.30;4.27;;;8.40;99.90;;;;;;5038479;28;20025;-86
2022/10/11 07:37:46;;;;;;;12.57;4.13;;;8.50;99.90;;;;;;5021571;28;20022;-86
2022/10/11 07:40:11;;;;;;;10.73;4.57;;;8.60;99.90;;;;;;5021289;28;20021;-86
2022/10/11 07:42:37;;;;;;;11.30;4.90;;;8.60;99.90;;;;;;5037658;28;20021;-87
2022/10/11 07:45:03;;;;;;;9.50;3.60;;;8.70;99.90;;;;;;5037561;28;20018;-87
2022/10/11 07:47:29;;;;;;;13.27;4.70;;;8.80;99.90;;;;;;5021405;28;20424;-87
2022/10/11 07:49:54;;;;;;;8.90;4.20;;;8.90;99.90;;;;;;5021555;28;20040;-87
2022/10/11 07:52:20;;;;;;;10.80;5.07;;;8.80;99.90;;;;;;5021395;28;20449;-87
2022/10/11 07:54:49;;;;;;;13.23;4.33;;;8.90;99.90;;;;;;5021316;28;20416;-86
2022/10/11 07:57:15;;;;;;;11.57;3.90;;;8.90;99.90;;;;;;5055707;28;20021;-87
2022/10/11 07:59:42;;;;;;;10.47;4.10;;;8.90;99.90;;;;;;5037392;28;20451;-87
2022/10/11 08:02:11;;;;;;;12.47;4.20;;;9.00;99.90;;;;;;5037261;28;20388;-87
2022/10/11 08:04:38;;;;;;;12.13;4.67;;;9.00;99.90;;;;;;5020116;28;20090;-81
2022/10/11 08:07:07;;;;;;;9.93;4.43;;;9.10;99.90;;;;;;5036191;28;20222;-81
2022/10/11 08:09:32;;;;;;;14.40;3.93;;;9.20;99.90;;;;;;5019808;28;20049;-81
2022/10/11 08:11:58;;;;;;;10.27;3.67;;;9.20;99.90;;;;;;5020063;28;20025;-82
2022/10/11 08:14:23;;;;;;;11.87;3.87;;;9.30;99.90;;;;;;5020083;28;20063;-82
2022/10/11 08:16:49;;;;;;;14.43;4.03;;;9.30;99.90;;;;;;5036219;28;20067;-81
2022/10/11 08:19:17;;;;;;;11.17;4.57;;;9.40;99.90;;;;;;5034189;28;20366;-81
2022/10/11 08:21:43;;;;;;;10.87;3.63;;;9.50;99.90;;;;;;5020006;28;20032;-81
2022/10/11 08:24:12;;;;;;;10.07;4.37;;;9.60;99.90;;;;;;5053218;28;20155;-81
2022/10/11 08:26:38;;;;;;;13.70;4.23;;;9.50;99.90;;;;;;5035333;28;20486;-82
2022/10/11 08:29:04;;;;;;;11.67;3.70;;;9.60;99.90;;;;;;5016471;28;20018;-81
2022/10/11 08:31:31;;;;;;;13.30;4.53;;;9.80;99.90;;;;;;4999679;28;20047;-81
2022/10/11 08:33:57;;;;;;;12.80;4.60;;;9.80;99.90;;;;;;5033687;28;20025;-81
2022/10/11 08:36:23;;;;;;;13.07;5.70;;;9.90;99.90;;;;;;5015915;28;20144;-81
2022/10/11 08:38:49;;;;;;;14.67;5.00;;;9.90;99.90;;;;;;5016059;28;20025;-81
2022/10/11 08:41:42;;;;;;;15.37;5.80;;;10.00;99.90;;;;;;5052284;28;20376;-81
2022/10/11 08:44:25;;;;;;;14.23;5.00;;;10.10;99.90;;;;;;5035607;28;20029;-81
2022/10/11 08:46:59;;;;;;;14.27;5.40;;;10.20;99.90;;;;;;5035898;28;20025;-81
2022/10/11 08:49:30;;;;;;;12.57;4.47;;;10.30;99.90;;;;;;5035541;28;20025;-80
2022/10/11 08:52:01;;;;;;;11.27;4.38;;;10.30;99.90;;;;;;5053770;28;20017;-81
2022/10/11 08:54:39;;;;;;;9.52;3.70;;;10.40;99.90;;;;;;5035548;28;20385;-80
2022/10/11 08:57:06;;;;;;;10.23;3.47;;;10.50;99.90;;;;;;5036013;28;20377;-81
2022/10/11 08:59:38;;;;;;;10.27;3.20;;;10.60;99.90;;;;;;5019178;28;20027;-81
2022/10/11 09:02:36;;;;;;;13.70;3.25;;;10.70;99.90;;;;;;5035334;28;20036;-80
2022/10/11 09:05:03;;;;;;;12.27;3.53;;;10.80;99.90;;;;;;5035333;28;20392;-81
2022/10/11 09:07:29;;;;;;;10.68;3.88;;;10.90;99.90;;;;;;5035431;28;20104;-81
2022/10/11 09:09:59;;;;;;;10.23;4.20;;;11.00;99.90;;;;;;5035164;28;20132;-81
2022/10/11 09:12:43;;;;;;;17.20;3.80;;;11.00;99.90;;;;;;5035365;28;20021;-82
2022/10/11 09:15:11;;;;;;;10.15;3.35;;;11.10;99.90;;;;;;5053190;28;20515;-81
2022/10/11 09:17:46;;;;;;;7.00;2.70;;;11.20;99.90;;;;;;5035227;28;20119;-81
2022/10/11 09:20:34;;;;;;;9.68;3.78;;;11.20;99.90;;;;;;5035245;28;20021;-81
2022/10/11 09:23:23;;;;;;;13.50;3.42;;;11.40;99.90;;;;;;5035114;28;20044;-81
2022/10/11 09:26:01;;;;;;;13.30;3.42;;;11.40;99.90;;;;;;5053291;28;20497;-81
2022/10/11 09:28:48;;;;;;;11.35;3.70;;;11.60;99.90;;;;;;5035016;28;20025;-81
2022/10/11 09:31:15;;;;;;;10.90;3.08;;;11.70;99.90;;;;;;5034975;28;20485;-81
2022/10/11 09:33:45;;;;;;;12.23;3.97;;;11.80;99.90;;;;;;5034774;28;20048;-82
2022/10/11 09:36:50;;;;;;;11.05;3.35;;;11.90;99.90;;;;;;5037753;28;20021;-81
2022/10/11 09:39:35;;;;;;;;;;;12.10;99.90;;;;;;5039512;28;20071;-81
2022/10/11 09:42:07;;;;;;;10.18;2.53;;;12.40;99.90;;;;;;5039389;28;20276;-81
2022/10/11 09:44:45;;;;;;;8.52;2.10;;;12.80;99.90;;;;;;5038935;28;20064;-83
2022/10/11 09:47:18;;;;;;;7.95;2.15;;;13.20;99.90;;;;;;5038856;28;20543;-83
2022/10/11 09:50:05;;;;;;;11.07;2.13;;;13.60;99.90;;;;;;5056362;28;20025;-83
2022/10/11 09:52:31;;;;;;;7.15;1.52;;;14.30;99.90;;;;;;5039738;28;20543;-83
2022/10/11 09:55:00;;;;;;;7.95;2.03;;;14.90;99.90;;;;;;5039051;28;20078;-83
2022/10/11 09:57:31;;;;;;;8.68;1.23;;;15.70;99.90;;;;;;5038747;28;20021;-82
2022/10/11 10:00:08;;;;;;;8.20;1.38;;;16.40;99.90;;;;;;5038910;28;20024;-83
2022/10/11 10:02:47;;;;;;;6.38;1.45;;;17.20;99.90;;;;;;5039248;28;20074;-84
2022/10/11 10:05:32;;;;;;;6.53;1.80;;;18.00;99.20;;;;;;5038588;28;20021;-81
2022/10/11 10:08:25;;;;;;;7.22;1.67;;;18.80;96.00;;;;;;5056557;28;20016;-84
2022/10/11 10:11:03;;;;;;;8.68;1.10;;;19.50;92.60;;;;;;5051334;28;20048;-83
2022/10/11 10:13:53;;;;;;;6.47;1.38;;;20.10;90.50;;;;;;5056357;28;20053;-85
2022/10/11 10:16:24;;;;;;;8.77;1.38;;;20.60;86.70;;;;;;5055071;28;20393;-85
2022/10/11 10:18:53;;;;;;;5.60;1.38;;;21.20;85.10;;;;;;5056290;28;20036;-81
2022/10/11 10:21:29;;;;;;;6.18;1.33;;;21.90;82.40;;;;;;5038286;28;20033;-82
2022/10/11 10:23:56;;;;;;;7.07;1.38;;;22.40;76.90;;;;;;5038223;28;20026;-82
2022/10/11 10:26:24;;;;;;;5.72;1.30;;;22.80;74.70;;;;;;5021761;28;20049;-84
2022/10/11 10:29:08;;;;;;;8.07;1.67;;;23.10;71.90;;;;;;5037739;28;20086;-84
2022/10/11 10:31:34;;;;;;;8.93;1.95;;;23.50;68.20;;;;;;5038368;28;20116;-84
2022/10/11 10:34:10;;;;;;;4.72;1.02;;;24.00;67.60;;;;;;5055931;28;20410;-84
2022/10/11 10:36:38;;;;;;;9.98;1.90;;;24.50;65.40;;;;;;5038548;28;20377;-82
2022/10/11 10:39:29;;;;;;;8.23;1.52;;;24.90;64.10;;;;;;5021335;28;20056;-81
2022/10/11 10:41:55;;;;;;;8.45;1.50;;;25.40;61.40;;;;;;5055936;28;20028;-83
2022/10/11 10:44:21;;;;;;;9.57;1.30;;;25.90;60.30;;;;;;5054609;28;20428;-84
2022/10/11 10:47:05;;;;;;;6.25;1.30;;;26.30;58.80;;;;;;5037493;28;20021;-85
2022/10/11 10:49:46;;;;;;;5.95;1.60;;;26.60;55.90;;;;;;5038001;28;20032;-83
2022/10/11 10:52:31;;;;;;;7.97;1.33;;;26.90;54.00;;;;;;5038114;28;20021;-84
2022/10/11 10:55:03;;;;;;;7.30;1.35;;;27.00;52.40;;;;;;5037906;28;20021;-84
2022/10/11 10:57:58;;;;;;;9.05;1.20;;;27.10;51.40;;;;;;5038036;28;20120;-84
2022/10/11 11:00:26;;;;;;;7.13;1.40;;;27.20;50.60;;;;;;5055665;28;20112;-83
2022/10/11 11:03:01;;;;;;;9.02;1.55;;;27.50;50.60;;;;;;5037871;28;20021;-83
2022/10/11 11:05:39;;;;;;;6.30;1.30;;;27.80;48.80;;;;;;5037411;28;20067;-84
2022/10/11 11:08:13;;;;;;;6.07;1.50;;;28.10;47.80;;;;;;5037549;28;20029;-83
2022/10/11 11:11:07;;;;;;;6.53;1.30;;;28.40;48.50;;;;;;5055597;28;20043;-85
2022/10/11 11:13:44;;;;;;;;;;;28.50;46.60;;;;;;5038710;28;20056;-81
2022/10/11 11:16:26;;;;;;;3.97;1.08;;;28.70;47.60;;;;;;5038251;28;19909;-83
2022/10/11 11:18:57;;;;;;;7.68;1.85;;;29.00;47.40;;;;;;5055864;28;20104;-82
2022/10/11 11:21:46;;;;;;;7.30;1.13;;;29.20;47.30;;;;;;5038232;28;20378;-82
2022/10/11 11:24:38;;;;;;;8.15;1.73;;;29.50;45.40;;;;;;5055125;28;20075;-82
2022/10/11 11:27:25;;;;;;;6.53;1.10;;;29.80;44.60;;;;;;5037422;28;20025;-82
2022/10/11 11:30:13;;;;;;;4.50;1.30;;;29.80;44.50;;;;;;5036876;28;20283;-85
2022/10/11 11:32:41;;;;;;;5.95;1.38;;;30.00;43.70;;;;;;5054927;28;20429;-85
2022/10/11 11:35:21;;;;;;;5.65;1.40;;;30.30;44.20;;;;;;5037270;28;20021;-84
2022/10/11 11:37:52;;;;;;;5.85;1.30;;;30.40;42.20;;;;;;5037125;28;20032;-85
2022/10/11 11:40:36;;;;;;;6.50;1.58;;;30.40;42.50;;;;;;5037462;28;20381;-84
2022/10/11 11:43:17;;;;;;;9.15;1.60;;;30.60;41.30;;;;;;5054633;28;20021;-84
2022/10/11 11:45:53;;;;;;;6.30;1.30;;;30.80;41.40;;;;;;5036754;28;20025;-84
2022/10/11 11:48:24;;;;;;;5.75;1.27;;;30.90;40.70;;;;;;5036615;28;20029;-85
2022/10/11 11:51:10;;;;;;;5.97;1.45;;;30.90;40.10;;;;;;5036697;28;20028;-85
2022/10/11 11:53:47;;;;;;;6.18;1.40;;;31.00;39.60;;;;;;5036629;28;20029;-85
2022/10/11 11:56:18;;;;;;;4.80;1.20;;;31.20;39.30;;;;;;5036848;28;20082;-85
2022/10/11 11:58:54;;;;;;;8.77;1.45;;;31.20;39.50;;;;;;5036010;28;20025;-84
2022/10/11 12:01:36;;;;;;;7.57;1.40;;;31.40;39.20;;;;;;5044178;28;20071;-85
2022/10/11 12:04:21;;;;;;;7.43;1.47;;;31.60;38.80;;;;;;5052994;28;20021;-84
2022/10/11 12:07:07;;;;;;;6.43;1.17;;;31.90;38.70;;;;;;5053204;28;20049;-85
2022/10/11 12:09:35;;;;;;;5.60;1.00;;;32.20;38.20;;;;;;5049505;28;20049;-85
2022/10/11 12:12:04;;;;;;;6.72;1.15;;;32.60;38.50;;;;;;5049595;28;20389;-84
2022/10/11 12:14:33;;;;;;;5.10;1.30;;;32.80;37.80;;;;;;5049878;28;20029;-84
2022/10/11 12:17:07;;;;;;;6.45;1.30;;;32.90;37.40;;;;;;5034149;28;20025;-85
2022/10/11 12:19:34;;;;;;;5.35;1.13;;;33.00;36.50;;;;;;5034331;28;20100;-84
2022/10/11 12:22:36;;;;;;;8.10;1.10;;;33.00;36.20;;;;;;5032841;28;20030;-84
2022/10/11 12:25:08;;;;;;;6.43;1.23;;;32.80;35.40;;;;;;5049363;28;20025;-85
2022/10/11 12:27:46;;;;;;;7.78;1.10;;;32.70;35.70;;;;;;5050111;28;20045;-85
2022/10/11 12:30:43;;;;;;;8.57;1.42;;;32.60;35.40;;;;;;5033946;28;20029;-85
2022/10/11 12:33:23;;;;;;;4.82;1.00;;;32.50;35.30;;;;;;5050580;28;20021;-85
2022/10/11 12:35:52;;;;;;;5.78;1.30;;;32.50;35.40;;;;;;5049406;28;20056;-85
2022/10/11 12:38:31;;;;;;;7.88;1.35;;;32.60;35.50;;;;;;5035100;28;20079;-85
2022/10/11 12:41:01;;;;;;;6.07;1.20;;;32.60;35.60;;;;;;5049187;28;20025;-85
2022/10/11 12:43:29;;;;;;;7.28;1.23;;;32.60;35.50;;;;;;5049175;28;20067;-85
2022/10/11 12:45:55;;;;;;;6.85;1.40;;;32.80;35.40;;;;;;5049542;28;20033;-85
2022/10/11 12:48:37;;;;;;;7.22;1.23;;;33.10;34.50;;;;;;5032656;28;20029;-82
2022/10/11 12:51:22;;;;;;;5.85;1.20;;;33.20;34.40;;;;;;5033455;28;20030;-82
2022/10/11 12:54:21;;;;;;;8.27;1.42;;;33.00;34.30;;;;;;5049187;28;20084;-81
2022/10/11 12:57:07;;;;;;;7.82;1.05;;;32.40;34.40;;;;;;5049014;28;20033;-82
2022/10/11 12:59:33;;;;;;;6.05;1.10;;;32.10;35.00;;;;;;5047968;28;20025;-82
2022/10/11 13:01:59;;;;;;;4.38;0.98;;;32.10;35.20;;;;;;5032142;28;20116;-83
2022/10/11 13:04:28;;;;;;;6.28;1.08;;;32.30;35.10;;;;;;5048641;28;20045;-82
2022/10/11 13:06:57;;;;;;;6.75;1.17;;;32.60;34.90;;;;;;5048959;28;20508;-83
2022/10/11 13:09:26;;;;;;;5.72;1.38;;;32.80;34.50;;;;;;5051599;28;20036;-83
2022/10/11 13:12:13;;;;;;;4.72;0.95;;;33.00;34.70;;;;;;5051975;28;20028;-83